| time (UTC) | temp C | wind direction | speed KPH | gust KPH | rain 1hr cm | rain 24hr cm | rain mn cm | humidity % | barometer mb |
| 20260502170326 | 20 | 317 | 4.8 | 19.3 | 0.00 | 2.46 | 0.00 | 60 | 1021.2 |
| 20260502164326 | 20 | 36 | 3.2 | 11.3 | 0.00 | 2.46 | 0.00 | 60 | 1021.3 |
| 20260502163830 | 20 | 75 | 4.8 | 12.9 | 0.00 | 2.46 | 0.00 | 61 | 1021.3 |
| 20260502163335 | 20 | 44 | 6.4 | 12.9 | 0.00 | 2.46 | 0.00 | 61 | 1021.2 |
| 20260502162822 | 20 | 43 | 3.2 | 14.5 | 0.00 | 2.46 | 0.00 | 63 | 1021.2 |
| 20260502162326 | 20 | 23 | 4.8 | 9.7 | 0.00 | 2.82 | 0.00 | 64 | 1021.2 |
| 20260502161830 | 19 | 322 | 1.6 | 14.5 | 0.00 | 2.82 | 0.00 | 68 | 1021.2 |
| 20260502161359 | 19 | 355 | 3.2 | 14.5 | 0.00 | 2.82 | 0.00 | 67 | 1021.2 |
| 20260502160822 | 18 | 102 | 4.8 | 19.3 | 0.00 | 2.82 | 0.00 | 66 | 1021.2 |
| 20260502160332 | 18 | 9 | 4.8 | 19.3 | 0.00 | 2.82 | 0.00 | 68 | 1021.1 |
| 20260502152326 | 17 | 331 | 4.8 | 14.5 | 0.00 | 0.00 | 0.00 | 73 | 1021.0 |
| 20260502151831 | 17 | 43 | 3.2 | 17.7 | 0.00 | 0.00 | 0.00 | 74 | 1021.0 |
| 20260502151337 | 17 | 39 | 6.4 | 17.7 | 0.00 | 0.00 | 0.00 | 75 | 1021.0 |
| 20260502150841 | 17 | 61 | 4.8 | 16.1 | 0.00 | 0.00 | 0.00 | 75 | 1021.0 |
| 20260502150329 | 17 | 351 | 4.8 | 14.5 | 0.00 | 0.00 | 0.00 | 76 | 1020.9 |
| 20260502130323 | 12 | 335 | 3.2 | 4.8 | 0.00 | 0.00 | 0.00 | 93 | 1019.7 |
| 20260502123327 | 11 | 348 | 0.0 | 4.8 | 0.00 | 0.00 | 0.00 | 95 | 1019.1 |
| 20260502122832 | 11 | 350 | 1.6 | 4.8 | 0.00 | 0.00 | 0.00 | 95 | 1019.1 |
| 20260502122338 | 11 | 323 | 1.6 | 3.2 | 0.00 | 0.00 | 0.00 | 95 | 1019.1 |
| 20260502121844 | 11 | 305 | 0.0 | 1.6 | 0.00 | 0.00 | 0.00 | 95 | 1019.1 |
| 20260502121328 | 11 | 305 | 0.0 | 1.6 | 0.00 | 0.00 | 0.00 | 95 | 1019.1 |
| 20260502120832 | 11 | 305 | 0.0 | 4.8 | 0.00 | 0.00 | 0.00 | 95 | 1019.1 |
| 20260502120356 | 11 | 305 | 3.2 | 4.8 | 0.00 | 0.00 | 0.00 | 95 | 1018.8 |
| 20260502115819 | 11 | 295 | 0.0 | 1.6 | 0.00 | 0.00 | 0.00 | 95 | 1018.8 |
| 20260502115329 | 11 | 295 | 0.0 | 1.6 | 0.00 | 0.00 | 0.00 | 95 | 1018.8 |
| 20260502114838 | 11 | 295 | 0.0 | 3.2 | 0.00 | 0.00 | 0.00 | 95 | 1018.6 |
| 20260502114324 | 11 | 295 | 1.6 | 3.2 | 0.00 | 0.00 | 0.00 | 95 | 1018.6 |
| 20260502113829 | 11 | 305 | 0.0 | 3.2 | 0.00 | 0.00 | 0.00 | 94 | 1018.6 |
| 20260502113334 | 11 | 305 | 1.6 | 3.2 | 0.00 | 0.00 | 0.00 | 95 | 1018.5 |
| 20260502112840 | 11 | 305 | 0.0 | 3.2 | 0.00 | 0.00 | 0.00 | 94 | 1018.5 |
| 20260502112325 | 11 | 305 | 0.0 | 3.2 | 0.00 | 0.00 | 0.00 | 94 | 1018.5 |
| 20260502111828 | 11 | 305 | 0.0 | 4.8 | 0.00 | 0.00 | 0.00 | 94 | 1018.5 |
| 20260502111334 | 11 | 1 | 1.6 | 4.8 | 0.00 | 0.00 | 0.00 | 94 | 1018.5 |
| 20260502110840 | 11 | 319 | 3.2 | 4.8 | 0.00 | 0.00 | 0.00 | 94 | 1018.5 |
| 20260502110325 | 11 | 297 | 1.6 | 4.8 | 0.00 | 0.00 | 0.00 | 94 | 1018.2 |
| 20260502105829 | 11 | 324 | 1.6 | 6.4 | 0.00 | 0.00 | 0.00 | 94 | 1018.2 |
| 20260502105341 | 11 | 319 | 0.0 | 6.4 | 0.00 | 0.00 | 0.00 | 94 | 1018.2 |
| 20260502104826 | 11 | 314 | 1.6 | 4.8 | 0.00 | 0.00 | 0.00 | 94 | 1018.0 |
| 20260502104332 | 11 | 357 | 1.6 | 4.8 | 0.00 | 0.00 | 0.00 | 94 | 1018.0 |
| 20260502103837 | 11 | 333 | 1.6 | 4.8 | 0.00 | 0.00 | 0.00 | 94 | 1018.0 |
| 20260502103346 | 11 | 6 | 1.6 | 4.8 | 0.00 | 0.00 | 0.00 | 94 | 1018.0 |
| 20260502102830 | 11 | 355 | 3.2 | 4.8 | 0.00 | 0.00 | 0.00 | 94 | 1018.0 |
| 20260502102333 | 11 | 279 | 0.0 | 4.8 | 0.00 | 0.00 | 0.00 | 94 | 1018.0 |
| 20260502101901 | 11 | 6 | 1.6 | 4.8 | 0.00 | 0.00 | 0.00 | 94 | 1017.5 |
| 20260502101324 | 11 | 358 | 1.6 | 4.8 | 0.00 | 0.00 | 0.00 | 94 | 1017.5 |
| 20260502100829 | 11 | 359 | 1.6 | 3.2 | 0.00 | 0.00 | 0.00 | 93 | 1017.5 |
| 20260502100335 | 11 | 9 | 1.6 | 3.2 | 0.00 | 0.00 | 0.00 | 93 | 1017.5 |
| 20260502091335 | 12 | 31 | 0.0 | 3.2 | 0.00 | 0.00 | 0.00 | 91 | 1016.7 |
| 20260502090902 | 12 | 324 | 0.0 | 3.2 | 0.00 | 0.00 | 0.00 | 91 | 1016.7 |
| 20260502090327 | 12 | 91 | 0.0 | 6.4 | 0.00 | 0.00 | 0.00 | 91 | 1016.4 |
| 20260502071323 | 12 | 94 | 0.0 | 6.4 | 0.00 | 0.00 | 0.00 | 93 | 1016.8 |
| 20260502070830 | 12 | 47 | 1.6 | 6.4 | 0.00 | 0.00 | 0.00 | 93 | 1016.8 |
| 20260502070337 | 12 | 66 | 1.6 | 8.0 | 0.00 | 0.00 | 0.00 | 93 | 1016.5 |
| 20260502065821 | 12 | 59 | 3.2 | 8.0 | 0.00 | 0.00 | 0.00 | 93 | 1016.5 |
| 20260502065327 | 12 | 317 | 3.2 | 9.7 | 0.00 | 0.00 | 0.00 | 94 | 1016.5 |
| 20260502064833 | 12 | 346 | 1.6 | 9.7 | 0.00 | 0.00 | 0.00 | 94 | 1016.4 |
| 20260502064324 | 12 | 99 | 3.2 | 9.7 | 0.00 | 0.00 | 0.00 | 94 | 1016.4 |
| 20260502063830 | 12 | 78 | 1.6 | 9.7 | 0.00 | 0.00 | 0.00 | 94 | 1016.4 |
| 20260502063336 | 12 | 50 | 3.2 | 12.9 | 0.00 | 0.00 | 0.00 | 94 | 1016.4 |
| 20260502062823 | 12 | 357 | 4.8 | 12.9 | 0.00 | 0.00 | 0.00 | 94 | 1016.4 |
| 20260502062329 | 12 | 85 | 3.2 | 11.3 | 0.00 | 0.00 | 0.00 | 94 | 1016.4 |
| 20260502061816 | 12 | 85 | 1.6 | 9.7 | 0.00 | 0.00 | 0.00 | 94 | 1016.3 |
| 20260502060832 | 12 | 351 | 3.2 | 9.7 | 0.00 | 0.00 | 0.00 | 94 | 1016.3 |
| 20260502060339 | 12 | 50 | 3.2 | 9.7 | 0.00 | 0.00 | 0.00 | 94 | 1016.4 |
| 20260502055825 | 12 | 60 | 4.8 | 11.3 | 0.00 | 0.00 | 0.00 | 95 | 1016.4 |
| 20260502055335 | 12 | 66 | 3.2 | 11.3 | 0.00 | 0.00 | 0.00 | 95 | 1016.4 |
| 20260502054823 | 12 | 110 | 3.2 | 8.0 | 0.00 | 0.00 | 0.00 | 95 | 1016.2 |
| 20260502054332 | 12 | 33 | 3.2 | 9.7 | 0.00 | 0.00 | 0.00 | 95 | 1016.2 |
| 20260502053820 | 12 | 341 | 4.8 | 9.7 | 0.00 | 0.00 | 0.00 | 95 | 1016.2 |
| 20260502053325 | 12 | 46 | 4.8 | 14.5 | 0.00 | 0.00 | 0.00 | 95 | 1016.2 |
| 20260502052852 | 12 | 288 | 4.8 | 14.5 | 0.00 | 0.00 | 0.00 | 95 | 1016.2 |
| 20260502052338 | 12 | 346 | 3.2 | 16.1 | 0.00 | 0.00 | 0.00 | 95 | 1016.2 |
| 20260502051824 | 12 | 11 | 4.8 | 9.7 | 0.00 | 0.00 | 0.00 | 96 | 1016.0 |
| 20260502051334 | 12 | 87 | 4.8 | 9.7 | 0.00 | 0.00 | 0.00 | 96 | 1016.0 |
| 20260502050824 | 13 | 51 | 3.2 | 12.9 | 0.00 | 0.00 | 0.00 | 96 | 1016.0 |
| 20260502050335 | 12 | 20 | 4.8 | 12.9 | 0.00 | 0.00 | 9.68 | 96 | 1015.9 |
| 20260502045821 | 13 | 21 | 4.8 | 9.7 | 0.00 | 0.00 | 9.68 | 96 | 1015.9 |
| 20260502045348 | 13 | 22 | 4.8 | 9.7 | 0.00 | 0.00 | 9.68 | 96 | 1015.9 |
| 20260502044835 | 13 | 33 | 3.2 | 12.9 | 0.00 | 0.00 | 9.68 | 96 | 1016.0 |
| 20260502044322 | 13 | 12 | 6.4 | 12.9 | 0.00 | 0.00 | 9.68 | 96 | 1016.0 |
| 20260502043828 | 13 | 66 | 4.8 | 9.7 | 0.00 | 0.00 | 9.68 | 96 | 1016.0 |
| 20260502043335 | 13 | 308 | 3.2 | 9.7 | 0.00 | 0.00 | 9.68 | 96 | 1015.9 |
| 20260502042821 | 13 | 36 | 3.2 | 9.7 | 0.00 | 0.00 | 9.68 | 96 | 1015.9 |
| 20260502042350 | 12 | 334 | 3.2 | 16.1 | 0.00 | 0.00 | 9.68 | 96 | 1015.9 |
| 20260502041835 | 12 | 42 | 6.4 | 16.1 | 0.00 | 0.00 | 9.68 | 96 | 1016.0 |
| 20260502041322 | 13 | 217 | 1.6 | 16.1 | 0.00 | 0.00 | 9.68 | 96 | 1016.0 |
| 20260502040834 | 12 | 358 | 6.4 | 11.3 | 0.00 | 0.00 | 9.68 | 96 | 1015.9 |
| 20260502040320 | 13 | 37 | 4.8 | 11.3 | 0.00 | 0.00 | 9.68 | 96 | 1016.1 |
| 20260502035825 | 13 | 353 | 4.8 | 11.3 | 0.00 | 0.00 | 9.68 | 96 | 1016.1 |
| 20260502035352 | 12 | 340 | 4.8 | 12.9 | 0.00 | 0.00 | 9.68 | 96 | 1016.1 |
| 20260502034836 | 13 | 288 | 4.8 | 20.9 | 0.00 | 0.00 | 9.68 | 96 | 1015.9 |
| 20260502034321 | 12 | 28 | 6.4 | 20.9 | 0.00 | 0.00 | 9.68 | 96 | 1015.9 |
| 20260502033828 | 13 | 342 | 4.8 | 17.7 | 0.00 | 0.00 | 9.68 | 97 | 1015.9 |
| 20260502033335 | 12 | 11 | 4.8 | 9.7 | 0.00 | 0.00 | 9.68 | 97 | 1015.6 |
| 20260502032822 | 12 | 292 | 4.8 | 11.3 | 0.00 | 0.00 | 9.68 | 97 | 1015.6 |
| 20260502032329 | 12 | 307 | 4.8 | 16.1 | 0.00 | 0.00 | 9.68 | 97 | 1015.6 |
| 20260502031822 | 13 | 308 | 4.8 | 20.9 | 0.03 | 0.00 | 9.68 | 97 | 1015.4 |
| 20260502031350 | 13 | 19 | 4.8 | 20.9 | 0.05 | 0.00 | 9.68 | 97 | 1015.4 |
| 20260502030836 | 13 | 42 | 3.2 | 8.0 | 0.05 | 0.00 | 9.68 | 97 | 1015.4 |
| 20260502030322 | 13 | 312 | 1.6 | 14.5 | 0.08 | 0.00 | 9.68 | 97 | 1014.9 |
| 20260502025850 | 13 | 51 | 6.4 | 14.5 | 0.10 | 0.00 | 9.68 | 97 | 1014.9 |
| 20260502025335 | 13 | 353 | 4.8 | 12.9 | 0.13 | 0.00 | 9.68 | 97 | 1014.9 |
| 20260502024824 | 13 | 15 | 3.2 | 11.3 | 0.15 | 0.00 | 9.68 | 97 | 1014.6 |
| 20260502024351 | 13 | 325 | 4.8 | 14.5 | 0.15 | 0.00 | 9.68 | 97 | 1014.6 |
| 20260502023839 | 13 | 46 | 6.4 | 14.5 | 0.18 | 0.00 | 9.68 | 97 | 1014.6 |
| 20260502023326 | 13 | 89 | 4.8 | 11.3 | 0.18 | 0.00 | 9.68 | 97 | 1014.5 |
| 20260502022832 | 13 | 322 | 4.8 | 8.0 | 0.20 | 0.00 | 9.68 | 97 | 1014.5 |
| 20260502022319 | 13 | 77 | 1.6 | 8.0 | 0.20 | 0.00 | 9.68 | 97 | 1014.5 |
| 20260502021830 | 13 | 300 | 4.8 | 8.0 | 0.23 | 0.00 | 9.65 | 97 | 1014.2 |
| 20260502021356 | 13 | 345 | 4.8 | 8.0 | 0.25 | 0.00 | 9.63 | 97 | 1014.2 |
| 20260502020821 | 13 | 37 | 3.2 | 11.3 | 0.30 | 0.00 | 9.63 | 97 | 1014.2 |
| 20260502020328 | 13 | 333 | 3.2 | 11.3 | 0.30 | 0.00 | 9.60 | 97 | 1014.4 |
| 20260502015834 | 13 | 359 | 3.2 | 8.0 | 0.30 | 0.00 | 9.58 | 97 | 1014.4 |
| 20260502015319 | 13 | 359 | 4.8 | 14.5 | 0.28 | 0.00 | 9.55 | 97 | 1014.4 |
| 20260502014829 | 13 | 98 | 4.8 | 14.5 | 0.25 | 0.00 | 9.53 | 97 | 1014.3 |
| 20260502014335 | 13 | 42 | 4.8 | 11.3 | 0.28 | 0.00 | 9.53 | 97 | 1014.3 |
| 20260502013820 | 14 | 332 | 3.2 | 9.7 | 0.25 | 0.00 | 9.50 | 97 | 1014.3 |
| 20260502013326 | 14 | 329 | 1.6 | 11.3 | 0.28 | 0.00 | 9.50 | 97 | 1013.4 |
| 20260502012831 | 14 | 336 | 3.2 | 11.3 | 0.28 | 0.00 | 9.47 | 97 | 1013.4 |
| 20260502012321 | 14 | 12 | 3.2 | 11.3 | 0.28 | 0.00 | 9.47 | 97 | 1013.4 |
| 20260502011828 | 14 | 99 | 1.6 | 11.3 | 0.25 | 0.00 | 9.42 | 97 | 1013.6 |
| 20260502011335 | 14 | 106 | 3.2 | 9.7 | 0.20 | 0.00 | 9.37 | 97 | 1013.6 |
| 20260502010841 | 15 | 6 | 3.2 | 8.0 | 0.15 | 0.00 | 9.32 | 97 | 1013.6 |
| 20260502010325 | 15 | 70 | 3.2 | 6.4 | 0.15 | 0.00 | 9.30 | 97 | 1013.9 |
| 20260502005835 | 15 | 9 | 1.6 | 6.4 | 0.15 | 0.00 | 9.27 | 97 | 1013.9 |
| 20260502005322 | 14 | 332 | 1.6 | 9.7 | 0.20 | 0.00 | 9.27 | 97 | 1013.8 |
| 20260502004828 | 14 | 295 | 3.2 | 16.1 | 0.23 | 0.00 | 9.27 | 97 | 1012.2 |
| 20260502004334 | 14 | 108 | 6.4 | 16.1 | 0.23 | 0.00 | 9.25 | 97 | 1012.2 |
| 20260502003825 | 14 | 16 | 1.6 | 8.0 | 0.25 | 0.00 | 9.25 | 97 | 1012.2 |
| 20260502003331 | 14 | 91 | 3.2 | 9.7 | 0.23 | 0.00 | 9.22 | 97 | 1012.7 |
| 20260502002822 | 14 | 16 | 3.2 | 9.7 | 0.20 | 0.00 | 9.19 | 97 | 1012.7 |
| 20260502002331 | 14 | 61 | 1.6 | 9.7 | 0.20 | 0.00 | 9.19 | 97 | 1012.7 |
| 20260502001818 | 15 | 336 | 4.8 | 9.7 | 0.18 | 0.00 | 9.17 | 97 | 1012.8 |
| 20260502001326 | 15 | 9 | 3.2 | 6.4 | 0.20 | 0.00 | 9.17 | 97 | 1012.8 |
| 20260502000832 | 15 | 11 | 3.2 | 11.3 | 0.28 | 0.00 | 9.17 | 97 | 1012.8 |
| 20260502000339 | 15 | 13 | 4.8 | 11.3 | 0.41 | 0.00 | 9.14 | 97 | 1013.3 |
| 20260501235824 | 15 | 19 | 1.6 | 8.0 | 0.46 | 0.00 | 9.12 | 97 | 1013.3 |
| 20260501235332 | 15 | 9 | 3.2 | 8.0 | 0.43 | 0.00 | 9.09 | 97 | 1013.3 |
| 20260501234818 | 15 | 87 | 3.2 | 11.3 | 0.41 | 0.00 | 9.04 | 97 | 1012.3 |
| 20260501234333 | 15 | 315 | 4.8 | 11.3 | 0.38 | 0.00 | 9.02 | 97 | 1012.3 |
| 20260501233839 | 15 | 349 | 3.2 | 9.7 | 0.36 | 0.00 | 8.99 | 97 | 1012.3 |
| 20260501233325 | 15 | 48 | 1.6 | 16.1 | 0.36 | 0.00 | 8.99 | 97 | 1011.6 |
| 20260501232830 | 15 | 10 | 3.2 | 17.7 | 0.36 | 0.00 | 8.99 | 97 | 1011.6 |
| 20260501232338 | 15 | 11 | 6.4 | 17.7 | 0.36 | 0.00 | 8.99 | 97 | 1011.6 |
| 20260501231842 | 15 | 179 | 1.6 | 16.1 | 0.36 | 0.00 | 8.99 | 97 | 1011.5 |
| 20260501231325 | 15 | 85 | 4.8 | 22.5 | 0.33 | 0.00 | 8.97 | 97 | 1011.5 |
| 20260501230832 | 15 | 132 | 9.7 | 22.5 | 0.25 | 0.00 | 8.89 | 97 | 1011.5 |
| 20260501230358 | 15 | 131 | 9.7 | 17.7 | 0.10 | 0.00 | 8.74 | 97 | 1011.4 |
| 20260501225901 | 15 | 89 | 4.8 | 11.3 | 0.03 | 0.00 | 8.66 | 97 | 1011.4 |
| 20260501225324 | 15 | 312 | 3.2 | 14.5 | 0.03 | 0.00 | 8.66 | 97 | 1011.4 |
| 20260501224829 | 15 | 11 | 6.4 | 24.1 | 0.00 | 0.00 | 8.64 | 97 | 1010.6 |
| 20260501224332 | 15 | 85 | 8.0 | 24.1 | 0.00 | 0.00 | 8.64 | 97 | 1010.6 |
| 20260501223836 | 15 | 94 | 4.8 | 20.9 | 0.00 | 0.00 | 8.64 | 97 | 1010.6 |
| 20260501223322 | 15 | 80 | 3.2 | 20.9 | 0.03 | 0.00 | 8.64 | 97 | 1010.2 |
| 20260501222830 | 15 | 80 | 6.4 | 17.7 | 0.03 | 0.00 | 8.64 | 97 | 1010.2 |
| 20260501222334 | 15 | 166 | 3.2 | 11.3 | 0.08 | 0.00 | 8.64 | 97 | 1010.2 |
| 20260501221821 | 15 | 45 | 4.8 | 11.3 | 0.08 | 0.00 | 8.64 | 97 | 1010.9 |
| 20260501221440 | 15 | 51 | 4.8 | 20.9 | 0.08 | 0.00 | 8.64 | 97 | 1010.9 |
| 20260501220833 | 15 | 18 | 6.4 | 20.9 | 0.08 | 0.00 | 8.64 | 97 | 1010.9 |
| 20260501220317 | 16 | 31 | 6.4 | 14.5 | 0.08 | 0.00 | 8.64 | 97 | 1011.6 |
| 20260501215824 | 16 | 49 | 3.2 | 11.3 | 0.08 | 0.00 | 8.64 | 97 | 1011.6 |
| 20260501215329 | 16 | 6 | 4.8 | 11.3 | 0.08 | 0.00 | 8.64 | 97 | 1011.6 |
| 20260501214835 | 16 | 61 | 1.6 | 9.7 | 0.08 | 0.00 | 8.64 | 98 | 1012.1 |
| 20260501214339 | 16 | 23 | 3.2 | 9.7 | 0.10 | 0.00 | 8.64 | 97 | 1012.1 |
| 20260501213828 | 16 | 30 | 3.2 | 11.3 | 0.13 | 0.00 | 8.64 | 97 | 1012.1 |
| 20260501213353 | 16 | 333 | 3.2 | 11.3 | 0.13 | 0.00 | 8.61 | 97 | 1011.5 |
| 20260501212835 | 16 | 347 | 1.6 | 11.3 | 0.18 | 0.00 | 8.61 | 97 | 1011.5 |
| 20260501212359 | 16 | 10 | 3.2 | 8.0 | 0.18 | 0.00 | 8.59 | 98 | 1011.5 |
| 20260501211822 | 16 | 22 | 1.6 | 8.0 | 0.20 | 0.00 | 8.56 | 97 | 1010.5 |
| 20260501211329 | 16 | 9 | 1.6 | 8.0 | 0.20 | 0.00 | 8.56 | 98 | 1010.5 |
| 20260501210837 | 16 | 14 | 3.2 | 9.7 | 0.25 | 0.00 | 8.56 | 98 | 1010.5 |
| 20260501210322 | 16 | 11 | 3.2 | 11.3 | 0.28 | 0.00 | 8.56 | 98 | 1010.7 |
| 20260501205829 | 16 | 355 | 4.8 | 16.1 | 0.33 | 0.00 | 8.56 | 98 | 1010.7 |
| 20260501205334 | 16 | 11 | 4.8 | 16.1 | 0.41 | 0.00 | 8.56 | 97 | 1010.7 |
| 20260501204820 | 16 | 10 | 4.8 | 17.7 | 0.43 | 0.00 | 8.56 | 97 | 1011.2 |
| 20260501204329 | 16 | 84 | 3.2 | 17.7 | 0.41 | 0.00 | 8.53 | 97 | 1011.2 |
| 20260501203853 | 16 | 37 | 3.2 | 6.4 | 0.38 | 0.00 | 8.51 | 98 | 1011.2 |
| 20260501203341 | 16 | 10 | 1.6 | 16.1 | 0.36 | 0.00 | 8.48 | 98 | 1010.3 |
| 20260501202824 | 16 | 1 | 6.4 | 16.1 | 0.30 | 0.00 | 8.43 | 98 | 1010.3 |
| 20260501202350 | 16 | 88 | 1.6 | 8.0 | 0.33 | 0.00 | 8.43 | 97 | 1010.3 |
| 20260501201833 | 16 | 82 | 1.6 | 14.5 | 0.28 | 0.00 | 8.38 | 98 | 1009.7 |
| 20260501201338 | 16 | 89 | 3.2 | 19.3 | 0.25 | 0.00 | 8.36 | 97 | 1009.7 |
| 20260501200844 | 16 | 11 | 4.8 | 19.3 | 0.23 | 0.00 | 8.31 | 97 | 1009.7 |
| 20260501200330 | 16 | 336 | 3.2 | 11.3 | 0.20 | 0.00 | 8.28 | 98 | 1010.2 |
| 20260501195817 | 16 | 47 | 4.8 | 11.3 | 0.20 | 0.00 | 8.26 | 98 | 1010.2 |
| 20260501195325 | 16 | 349 | 3.2 | 11.3 | 0.13 | 0.00 | 8.15 | 98 | 1010.2 |
| 20260501194835 | 16 | 321 | 1.6 | 11.3 | 0.13 | 0.00 | 8.13 | 98 | 1009.8 |
| 20260501194320 | 16 | 4 | 3.2 | 8.0 | 0.15 | 0.00 | 8.13 | 98 | 1009.8 |
| 20260501193829 | 16 | 75 | 1.6 | 8.0 | 0.23 | 0.00 | 8.13 | 98 | 1009.8 |
| 20260501193335 | 16 | 55 | 1.6 | 8.0 | 0.36 | 0.00 | 8.13 | 98 | 1010.1 |
| 20260501192825 | 16 | 87 | 3.2 | 8.0 | 0.38 | 0.00 | 8.13 | 98 | 1010.1 |
| 20260501192331 | 16 | 46 | 3.2 | 8.0 | 0.38 | 0.00 | 8.10 | 98 | 1010.1 |
| 20260501191837 | 16 | 76 | 3.2 | 11.3 | 0.38 | 0.00 | 8.10 | 98 | 1010.7 |
| 20260501191324 | 16 | 48 | 3.2 | 11.3 | 0.41 | 0.00 | 8.10 | 98 | 1010.7 |
| 20260501190850 | 16 | 60 | 3.2 | 6.4 | 0.41 | 0.00 | 8.08 | 98 | 1010.7 |
| 20260501190355 | 17 | 83 | 1.6 | 8.0 | 0.48 | 0.00 | 8.08 | 98 | 1010.2 |
| 20260501185819 | 16 | 77 | 1.6 | 8.0 | 0.46 | 0.00 | 8.05 | 98 | 1010.2 |
| 20260501185328 | 16 | 70 | 0.0 | 9.7 | 0.46 | 0.00 | 8.03 | 98 | 1010.2 |
| 20260501184835 | 16 | 85 | 3.2 | 14.5 | 0.46 | 0.00 | 8.00 | 98 | 1010.1 |
| 20260501184322 | 16 | 90 | 4.8 | 14.5 | 0.46 | 0.00 | 7.98 | 98 | 1010.1 |
| 20260501183830 | 16 | 55 | 1.6 | 6.4 | 0.43 | 0.00 | 7.92 | 98 | 1010.1 |
| 20260501183323 | 16 | 66 | 1.6 | 11.3 | 0.33 | 0.00 | 7.80 | 98 | 1009.0 |
| 20260501182829 | 16 | 85 | 1.6 | 19.3 | 0.30 | 0.00 | 7.75 | 98 | 1009.0 |
| 20260501182337 | 16 | 59 | 3.2 | 19.3 | 0.28 | 0.00 | 7.72 | 98 | 1009.0 |
| 20260501181823 | 16 | 99 | 3.2 | 17.7 | 0.30 | 0.00 | 7.72 | 98 | 1008.4 |
| 20260501181328 | 16 | 63 | 4.8 | 17.7 | 0.28 | 0.00 | 7.70 | 98 | 1008.4 |
| 20260501180837 | 16 | 105 | 3.2 | 19.3 | 0.28 | 0.00 | 7.67 | 97 | 1008.4 |
| 20260501180343 | 16 | 152 | 4.8 | 19.3 | 0.20 | 0.00 | 7.59 | 98 | 1010.3 |
| 20260501175826 | 16 | 64 | 3.2 | 17.7 | 0.20 | 0.00 | 7.59 | 97 | 1010.3 |
| 20260501175334 | 16 | 100 | 3.2 | 9.7 | 0.18 | 0.00 | 7.57 | 97 | 1010.3 |
| 20260501174819 | 16 | 305 | 3.2 | 9.7 | 0.15 | 0.00 | 7.54 | 98 | 1010.7 |
| 20260501174328 | 16 | 21 | 0.0 | 9.7 | 0.15 | 0.00 | 7.52 | 98 | 1010.7 |
| 20260501173819 | 16 | 73 | 3.2 | 9.7 | 0.18 | 0.00 | 7.49 | 98 | 1010.7 |
| 20260501173326 | 16 | 45 | 3.2 | 6.4 | 0.20 | 0.00 | 7.47 | 98 | 1010.7 |